Time;durP1;ratioP1;P1;durP2;ratioP2;P2;SDS_P1;SDS_P2;PMS_P1;PMS_P2;Temp;Humidity;BMP_temperature;BMP_pressure;BME280_temperature;BME280_humidity;BME280_pressure;Samples;Min_cycle;Max_cycle;Signal;HPM_P1;HPM_P2
2022/05/04 00:00:36;;;;;;;7.93;7.50;;;;;;;;;;5076423;28;20397;-62
2022/05/04 00:03:02;;;;;;;8.13;7.67;;;;;;;;;;5076336;28;20964;-62
2022/05/04 00:05:28;;;;;;;10.47;9.00;;;;;;;;;;5076189;28;20414;-62
2022/05/04 00:07:54;;;;;;;13.10;11.53;;;;;;;;;;5076251;28;20410;-62
2022/05/04 00:10:22;;;;;;;10.63;9.47;;;;;;;;;;5076121;28;20414;-62
2022/05/04 00:12:48;;;;;;;10.87;9.97;;;;;;;;;;5076191;28;20820;-63
2022/05/04 00:15:14;;;;;;;10.87;8.63;;;;;;;;;;5074794;28;20429;-62
2022/05/04 00:17:40;;;;;;;8.97;8.17;;;;;;;;;;5076151;28;20422;-63
2022/05/04 00:20:06;;;;;;;11.47;8.03;;;;;;;;;;5076267;28;20467;-63
2022/05/04 00:22:32;;;;;;;7.30;6.83;;;;;;;;;;5076010;28;20418;-63
2022/05/04 00:24:58;;;;;;;7.80;7.30;;;;;;;;;;5075899;28;20418;-62
2022/05/04 00:27:24;;;;;;;8.17;7.57;;;;;;;;;;5075904;28;20476;-62
2022/05/04 00:29:51;;;;;;;8.00;7.50;;;;;;;;;;5075815;28;20406;-62
2022/05/04 00:32:17;;;;;;;8.23;7.67;;;;;;;;;;5075841;28;20586;-62
2022/05/04 00:34:43;;;;;;;7.70;7.20;;;;;;;;;;5075909;28;20778;-63
2022/05/04 00:37:09;;;;;;;8.30;7.60;;;;;;;;;;5075688;28;20772;-62
2022/05/04 00:39:36;;;;;;;7.63;7.10;;;;;;;;;;5075480;28;20833;-63
2022/05/04 00:42:11;;;;;;;7.57;6.87;;;;;;;;;;5074393;28;20913;-62
2022/05/04 00:44:37;;;;;;;8.00;7.60;;;;;;;;;;5075877;28;20414;-62
2022/05/04 00:47:04;;;;;;;7.17;6.77;;;;;;;;;;5074158;28;20477;-63
2022/05/04 00:49:30;;;;;;;7.90;7.10;;;;;;;;;;5075390;28;20432;-62
2022/05/04 00:51:56;;;;;;;7.47;7.07;;;;;;;;;;5075402;28;20410;-62
2022/05/04 00:54:22;;;;;;;7.30;6.90;;;;;;;;;;5075444;28;20410;-62
2022/05/04 00:56:48;;;;;;;7.47;7.03;;;;;;;;;;5074928;28;20411;-62
2022/05/04 00:59:14;;;;;;;7.93;7.43;;;;;;;;;;5075396;28;20406;-62
2022/05/04 01:01:43;;;;;;;8.10;7.50;;;;;;;;;;5075229;28;20407;-62
2022/05/04 01:04:09;;;;;;;7.30;6.90;;;;;;;;;;5075302;28;20963;-63
2022/05/04 01:06:37;;;;;;;8.53;7.50;;;;;;;;;;5075038;28;20472;-63
2022/05/04 01:09:04;;;;;;;6.90;6.50;;;;;;;;;;5075112;28;20402;-62
2022/05/04 01:11:30;;;;;;;7.00;6.50;;;;;;;;;;5075297;28;20445;-62
2022/05/04 01:14:00;;;;;;;7.27;6.83;;;;;;;;;;5074994;28;20487;-62
2022/05/04 01:16:27;;;;;;;6.47;6.20;;;;;;;;;;5074997;28;20885;-62
2022/05/04 01:18:53;;;;;;;7.60;7.20;;;;;;;;;;5074911;28;20453;-62
2022/05/04 01:21:19;;;;;;;7.07;6.67;;;;;;;;;;5074963;28;20917;-62
2022/05/04 01:23:45;;;;;;;6.93;6.53;;;;;;;;;;5074817;28;20417;-63
2022/05/04 01:26:11;;;;;;;7.53;7.07;;;;;;;;;;5074685;28;20472;-62
2022/05/04 01:28:37;;;;;;;6.53;6.23;;;;;;;;;;5074716;28;20494;-62
2022/05/04 01:31:03;;;;;;;6.57;6.17;;;;;;;;;;5074773;28;20402;-63
2022/05/04 01:33:29;;;;;;;6.40;6.00;;;;;;;;;;5074745;28;20787;-62
2022/05/04 01:35:55;;;;;;;6.83;6.53;;;;;;;;;;5074482;28;20457;-62
2022/05/04 01:38:21;;;;;;;6.63;6.03;;;;;;;;;;5074574;28;20402;-62
2022/05/04 01:40:47;;;;;;;6.80;6.50;;;;;;;;;;5074273;28;20477;-63
2022/05/04 01:43:13;;;;;;;6.80;6.40;;;;;;;;;;5074394;28;20406;-62
2022/05/04 01:45:39;;;;;;;7.27;6.93;;;;;;;;;;5074370;28;20464;-63
2022/05/04 01:48:05;;;;;;;6.33;5.83;;;;;;;;;;5074434;28;20421;-62
2022/05/04 01:50:31;;;;;;;7.73;7.17;;;;;;;;;;5074191;28;20890;-62
2022/05/04 01:52:57;;;;;;;8.60;8.00;;;;;;;;;;5074248;28;20417;-63
2022/05/04 01:55:23;;;;;;;7.20;6.73;;;;;;;;;;5074193;28;20406;-63
2022/05/04 01:57:49;;;;;;;6.97;6.67;;;;;;;;;;5074190;28;20479;-64
2022/05/04 02:00:15;;;;;;;6.33;6.00;;;;;;;;;;5074134;28;20874;-63
2022/05/04 02:02:41;;;;;;;7.70;7.20;;;;;;;;;;5074313;28;20406;-62
2022/05/04 02:05:07;;;;;;;6.67;6.40;;;;;;;;;;5074105;28;20422;-62
2022/05/04 02:07:37;;;;;;;7.20;6.53;;;;;;;;;;5073982;28;20511;-63
2022/05/04 02:10:06;;;;;;;6.63;6.33;;;;;;;;;;5073057;28;20882;-63
2022/05/04 02:12:34;;;;;;;7.90;7.30;;;;;;;;;;5073934;28;20407;-62
2022/05/04 02:15:00;;;;;;;8.37;7.67;;;;;;;;;;5073834;28;20877;-63
2022/05/04 02:17:26;;;;;;;6.47;6.17;;;;;;;;;;5073837;28;20401;-63
2022/05/04 02:19:55;;;;;;;6.93;6.63;;;;;;;;;;5073687;28;20398;-62
2022/05/04 02:22:21;;;;;;;8.17;7.67;;;;;;;;;;5073742;28;20394;-62
2022/05/04 02:24:47;;;;;;;7.83;7.30;;;;;;;;;;5073934;28;20414;-62
2022/05/04 02:27:13;;;;;;;6.20;6.00;;;;;;;;;;5073626;28;20473;-62
2022/05/04 02:29:39;;;;;;;6.70;6.20;;;;;;;;;;5073639;28;20410;-62
2022/05/04 02:32:05;;;;;;;6.50;6.20;;;;;;;;;;5073571;28;20407;-63
2022/05/04 02:34:31;;;;;;;7.37;6.80;;;;;;;;;;5073564;28;20398;-62
2022/05/04 02:39:42;;;;;;;6.87;6.33;;;;;;;;;;5073302;28;20488;-62
2022/05/04 02:42:11;;;;;;;7.00;6.60;;;;;;;;;;5073570;28;20406;-62
2022/05/04 02:44:37;;;;;;;7.27;6.77;;;;;;;;;;5073432;28;21010;-62
2022/05/04 02:47:03;;;;;;;7.60;6.97;;;;;;;;;;5073411;28;20465;-62
2022/05/04 02:49:29;;;;;;;7.40;6.90;;;;;;;;;;5073399;28;20394;-62
2022/05/04 02:51:57;;;;;;;15.43;8.90;;;;;;;;;;5073338;28;20787;-62
2022/05/04 02:54:23;;;;;;;8.43;7.87;;;;;;;;;;5073380;28;20866;-62
2022/05/04 02:56:49;;;;;;;9.27;8.47;;;;;;;;;;5073304;28;20406;-62
2022/05/04 02:59:15;;;;;;;8.43;7.93;;;;;;;;;;5073274;28;20497;-61
2022/05/04 03:04:31;;;;;;;8.70;8.10;;;;;;;;;;5073276;28;20930;-63
2022/05/04 03:06:57;;;;;;;8.80;7.90;;;;;;;;;;5073094;28;20473;-62
2022/05/04 03:09:23;;;;;;;9.07;8.37;;;;;;;;;;5073176;28;20409;-63
2022/05/04 03:11:55;;;;;;;8.60;8.00;;;;;;;;;;5073279;28;20446;-63
2022/05/04 03:14:23;;;;;;;8.57;8.00;;;;;;;;;;5073404;28;20414;-62
2022/05/04 03:16:49;;;;;;;7.50;7.20;;;;;;;;;;5073450;28;20410;-62
2022/05/04 03:19:15;;;;;;;8.50;7.80;;;;;;;;;;5071864;28;20410;-62
2022/05/04 03:21:41;;;;;;;7.93;7.33;;;;;;;;;;5076023;28;20426;-62
2022/05/04 03:24:07;;;;;;;7.80;7.10;;;;;;;;;;5077157;28;20413;-62
2022/05/04 03:26:33;;;;;;;8.23;7.77;;;;;;;;;;5076978;28;20476;-63
2022/05/04 03:28:59;;;;;;;8.90;8.20;;;;;;;;;;5077059;28;20398;-63
2022/05/04 03:31:25;;;;;;;7.53;7.13;;;;;;;;;;5077018;28;20942;-64
2022/05/04 03:33:51;;;;;;;7.50;7.10;;;;;;;;;;5076947;28;20436;-65
2022/05/04 03:36:17;;;;;;;7.60;7.10;;;;;;;;;;5077058;28;20430;-62
2022/05/04 03:38:46;;;;;;;7.40;7.00;;;;;;;;;;5076858;28;20564;-63
2022/05/04 03:41:12;;;;;;;8.57;7.67;;;;;;;;;;5076603;28;20470;-63
2022/05/04 03:43:39;;;;;;;7.90;7.30;;;;;;;;;;5076792;28;20417;-62
2022/05/04 03:46:12;;;;;;;6.37;6.10;;;;;;;;;;5076595;28;20468;-63
2022/05/04 03:48:38;;;;;;;7.23;6.90;;;;;;;;;;5076660;28;20632;-63
2022/05/04 03:51:04;;;;;;;7.50;7.00;;;;;;;;;;5076538;28;20440;-63
2022/05/04 03:53:30;;;;;;;8.10;7.40;;;;;;;;;;5076511;28;20406;-63
2022/05/04 03:55:56;;;;;;;7.50;7.10;;;;;;;;;;5076528;28;20414;-63
2022/05/04 03:58:22;;;;;;;7.67;7.23;;;;;;;;;;5076464;28;20455;-62
2022/05/04 04:00:48;;;;;;;8.23;7.67;;;;;;;;;;5076414;28;20409;-64
2022/05/04 04:03:14;;;;;;;7.80;7.30;;;;;;;;;;5076358;28;20402;-63
2022/05/04 04:05:40;;;;;;;7.03;6.70;;;;;;;;;;5076099;28;20418;-62
2022/05/04 04:08:06;;;;;;;7.97;7.37;;;;;;;;;;5076274;28;20421;-63
2022/05/04 04:10:32;;;;;;;7.17;6.67;;;;;;;;;;5076213;28;20406;-63
2022/05/04 04:12:58;;;;;;;8.50;8.00;;;;;;;;;;5076184;28;20433;-63
2022/05/04 04:15:24;;;;;;;9.37;8.47;;;;;;;;;;5076076;28;20402;-62
2022/05/04 04:17:50;;;;;;;12.83;7.60;;;;;;;;;;5076305;28;20421;-62
2022/05/04 04:23:02;;;;;;;9.07;8.47;;;;;;;;;;5076231;28;20405;-62
2022/05/04 04:25:27;;;;;;;10.03;8.50;;;;;;;;;;5075872;28;20398;-62
2022/05/04 04:27:53;;;;;;;9.07;8.23;;;;;;;;;;5075927;28;20882;-62
2022/05/04 04:30:19;;;;;;;8.40;7.80;;;;;;;;;;5075812;28;20766;-62
2022/05/04 04:32:45;;;;;;;8.17;7.47;;;;;;;;;;5074966;28;20483;-63
2022/05/04 04:35:11;;;;;;;8.30;7.70;;;;;;;;;;5075888;28;20487;-62
2022/05/04 04:37:37;;;;;;;9.03;8.43;;;;;;;;;;5075909;28;20874;-62
2022/05/04 04:40:04;;;;;;;8.33;7.83;;;;;;;;;;5075993;28;20469;-61
2022/05/04 04:42:29;;;;;;;8.03;7.53;;;;;;;;;;5075832;28;20413;-62
2022/05/04 04:44:55;;;;;;;9.57;8.87;;;;;;;;;;5075759;28;20394;-63
2022/05/04 04:47:21;;;;;;;8.67;8.17;;;;;;;;;;5075619;28;20465;-62
2022/05/04 04:49:47;;;;;;;8.83;8.10;;;;;;;;;;5075648;28;20409;-62
2022/05/04 04:52:13;;;;;;;14.63;9.00;;;;;;;;;;5075593;28;20457;-63
2022/05/04 04:54:39;;;;;;;9.70;8.90;;;;;;;;;;5075593;28;20766;-63
2022/05/04 04:57:05;;;;;;;13.00;8.60;;;;;;;;;;5075843;28;20413;-62
2022/05/04 04:59:31;;;;;;;8.53;7.73;;;;;;;;;;5074186;28;20791;-62
2022/05/04 05:01:57;;;;;;;9.47;8.67;;;;;;;;;;5075382;28;20410;-62
2022/05/04 05:04:23;;;;;;;8.73;8.10;;;;;;;;;;5075277;28;20406;-63
2022/05/04 05:06:49;;;;;;;9.13;8.43;;;;;;;;;;5075172;28;20480;-62
2022/05/04 05:09:15;;;;;;;9.57;8.77;;;;;;;;;;5075576;28;20413;-63
2022/05/04 05:11:41;;;;;;;9.43;8.73;;;;;;;;;;5075260;28;20418;-62
2022/05/04 05:16:51;;;;;;;9.40;8.50;;;;;;;;;;5075026;28;20817;-62
2022/05/04 05:19:17;;;;;;;8.10;7.60;;;;;;;;;;5074876;28;20398;-62
2022/05/04 05:21:44;;;;;;;10.53;9.70;;;;;;;;;;5074918;28;20493;-63
2022/05/04 05:24:10;;;;;;;8.87;8.20;;;;;;;;;;5074816;28;20402;-63
2022/05/04 05:26:36;;;;;;;7.60;7.00;;;;;;;;;;5074718;28;20466;-62
2022/05/04 05:29:02;;;;;;;7.97;7.43;;;;;;;;;;5074886;28;20922;-62
2022/05/04 05:31:27;;;;;;;7.67;7.20;;;;;;;;;;5074768;28;20775;-62
2022/05/04 05:33:53;;;;;;;7.60;7.10;;;;;;;;;;5074715;28;20410;-62
2022/05/04 05:36:19;;;;;;;7.70;7.30;;;;;;;;;;5074639;28;20416;-62
2022/05/04 05:38:45;;;;;;;8.50;7.70;;;;;;;;;;5074462;28;20437;-62
2022/05/04 05:41:11;;;;;;;9.10;8.40;;;;;;;;;;5074416;28;20953;-61
2022/05/04 05:43:37;;;;;;;9.60;8.80;;;;;;;;;;5074425;28;20414;-61
2022/05/04 05:46:03;;;;;;;8.73;8.13;;;;;;;;;;5074415;28;20450;-60
2022/05/04 05:48:29;;;;;;;13.07;8.97;;;;;;;;;;5074412;28;20414;-60
2022/05/04 05:50:55;;;;;;;13.20;11.17;;;;;;;;;;5073124;28;20421;-60
2022/05/04 05:53:22;;;;;;;15.70;12.20;;;;;;;;;;5074237;28;20989;-62
2022/05/04 05:55:49;;;;;;;16.93;11.90;;;;;;;;;;5074534;28;20406;-61
2022/05/04 05:58:15;;;;;;;14.83;10.20;;;;;;;;;;5074256;28;20406;-61
2022/05/04 06:00:41;;;;;;;9.20;8.30;;;;;;;;;;5074091;28;20398;-61
2022/05/04 06:03:07;;;;;;;9.50;8.70;;;;;;;;;;5074168;28;20417;-62
2022/05/04 06:05:33;;;;;;;26.03;20.93;;;;;;;;;;5074012;28;20920;-62
2022/05/04 06:07:59;;;;;;;9.40;7.37;;;;;;;;;;5073995;28;20414;-62
2022/05/04 06:10:24;;;;;;;12.57;7.83;;;;;;;;;;5074103;28;20411;-61
2022/05/04 06:12:50;;;;;;;7.87;7.40;;;;;;;;;;5073939;28;20776;-61
2022/05/04 06:15:16;;;;;;;10.77;7.70;;;;;;;;;;5073915;28;20497;-61
2022/05/04 06:17:44;;;;;;;10.23;8.33;;;;;;;;;;5073964;28;20414;-60
2022/05/04 06:20:10;;;;;;;8.53;7.80;;;;;;;;;;5074086;28;20791;-61
2022/05/04 06:22:36;;;;;;;8.50;7.77;;;;;;;;;;5073912;28;20455;-61
2022/05/04 06:25:02;;;;;;;8.30;7.70;;;;;;;;;;5073723;28;20406;-61
2022/05/04 06:27:29;;;;;;;8.70;8.10;;;;;;;;;;5073788;28;20465;-61
2022/05/04 06:35:25;;;;;;;8.30;7.70;;;;;;;;;;5073616;28;20401;-61
2022/05/04 06:37:51;;;;;;;8.80;8.07;;;;;;;;;;5073658;28;20397;-61
2022/05/04 06:40:17;;;;;;;8.63;7.83;;;;;;;;;;5073515;28;20465;-61
2022/05/04 06:42:43;;;;;;;8.27;7.57;;;;;;;;;;5073515;28;20455;-61
2022/05/04 06:45:09;;;;;;;8.50;7.80;;;;;;;;;;5073526;28;20408;-61
2022/05/04 06:47:35;;;;;;;8.60;7.90;;;;;;;;;;5073405;28;20465;-62
2022/05/04 06:50:03;;;;;;;7.43;6.93;;;;;;;;;;5073485;28;20493;-61
2022/05/04 06:52:30;;;;;;;7.70;7.13;;;;;;;;;;5073516;28;20413;-61
2022/05/04 06:54:56;;;;;;;15.23;11.63;;;;;;;;;;5072985;28;20403;-62
2022/05/04 06:57:22;;;;;;;16.80;15.13;;;;;;;;;;5073417;28;20410;-61
2022/05/04 06:59:48;;;;;;;10.10;9.30;;;;;;;;;;5073405;28;20467;-63
2022/05/04 07:02:14;;;;;;;9.40;8.47;;;;;;;;;;5073342;28;20442;-62
2022/05/04 07:04:40;;;;;;;8.03;7.43;;;;;;;;;;5073331;28;20398;-62
2022/05/04 07:07:06;;;;;;;11.60;8.40;;;;;;;;;;5073224;28;20956;-62
2022/05/04 07:09:33;;;;;;;8.53;7.83;;;;;;;;;;5073299;28;20474;-62
2022/05/04 07:11:59;;;;;;;8.80;8.13;;;;;;;;;;5073555;28;20501;-62
2022/05/04 07:14:25;;;;;;;8.70;7.93;;;;;;;;;;5073261;28;20492;-62
2022/05/04 07:16:51;;;;;;;13.90;8.00;;;;;;;;;;5073167;28;20414;-61
2022/05/04 07:19:17;;;;;;;8.20;7.70;;;;;;;;;;5073212;28;20418;-62
2022/05/04 07:21:45;;;;;;;8.23;7.57;;;;;;;;;;5073370;28;20418;-62
2022/05/04 07:24:11;;;;;;;7.70;7.03;;;;;;;;;;5073468;28;20451;-61
2022/05/04 07:26:38;;;;;;;8.93;7.87;;;;;;;;;;5073093;28;20973;-62
2022/05/04 07:29:04;;;;;;;8.23;7.60;;;;;;;;;;5073087;28;20501;-62
2022/05/04 07:31:30;;;;;;;8.07;7.37;;;;;;;;;;5072993;28;20425;-62
2022/05/04 07:33:56;;;;;;;9.03;7.27;;;;;;;;;;5073117;28;20402;-62
2022/05/04 07:36:22;;;;;;;8.03;7.40;;;;;;;;;;5073021;28;20540;-62
2022/05/04 07:38:48;;;;;;;7.77;6.80;;;;;;;;;;5073019;28;20409;-62
2022/05/04 07:43:59;;;;;;;10.70;7.80;;;;;;;;;;5073007;28;20796;-62
2022/05/04 07:46:27;;;;;;;8.40;7.63;;;;;;;;;;5072898;28;20470;-62
2022/05/04 07:48:54;;;;;;;10.50;7.80;;;;;;;;;;5072977;28;20882;-62
2022/05/04 07:51:20;;;;;;;6.73;6.03;;;;;;;;;;5072851;28;20447;-64
2022/05/04 07:53:46;;;;;;;9.03;7.00;;;;;;;;;;5072852;28;20890;-62
2022/05/04 07:56:12;;;;;;;7.47;6.80;;;;;;;;;;5072798;28;20512;-62
2022/05/04 07:58:38;;;;;;;8.83;8.20;;;;;;;;;;5073083;28;20416;-63
2022/05/04 08:06:33;;;;;;;5.90;5.60;;;;;;;;;;5073385;28;20455;-62
2022/05/04 08:08:59;;;;;;;10.00;6.23;;;;;;;;;;5076585;28;20413;-62
2022/05/04 08:11:25;;;;;;;7.03;6.20;;;;;;;;;;5076368;28;20400;-63
2022/05/04 08:13:51;;;;;;;7.00;6.40;;;;;;;;;;5076287;28;20754;-62
2022/05/04 08:16:18;;;;;;;6.73;6.33;;;;;;;;;;5076552;28;20440;-60
2022/05/04 08:18:44;;;;;;;7.27;6.80;;;;;;;;;;5076477;28;20416;-61
2022/05/04 08:21:10;;;;;;;7.13;6.60;;;;;;;;;;5076162;28;20425;-61
2022/05/04 08:23:36;;;;;;;7.03;6.73;;;;;;;;;;5076114;28;20409;-62
2022/05/04 08:26:03;;;;;;;6.70;6.30;;;;;;;;;;5075983;28;20524;-63
2022/05/04 08:28:30;;;;;;;7.10;6.70;;;;;;;;;;5076147;28;20405;-63
2022/05/04 08:30:56;;;;;;;7.03;6.50;;;;;;;;;;5076257;28;20416;-62
2022/05/04 08:33:22;;;;;;;6.70;6.20;;;;;;;;;;5075935;28;20410;-62
2022/05/04 08:35:48;;;;;;;8.00;6.93;;;;;;;;;;5076080;28;20436;-61
2022/05/04 08:38:14;;;;;;;7.80;7.30;;;;;;;;;;5075919;28;20920;-62
2022/05/04 08:40:40;;;;;;;7.57;6.87;;;;;;;;;;5075760;28;20562;-62
2022/05/04 08:43:07;;;;;;;7.87;7.03;;;;;;;;;;5076124;28;20739;-63
2022/05/04 08:45:37;;;;;;;8.40;7.60;;;;;;;;;;5075787;28;20406;-62
2022/05/04 08:48:05;;;;;;;7.50;7.10;;;;;;;;;;5075716;28;20468;-62
2022/05/04 08:50:31;;;;;;;8.20;7.70;;;;;;;;;;5075894;28;20459;-62
2022/05/04 08:52:57;;;;;;;8.60;7.80;;;;;;;;;;5075605;28;20435;-63
2022/05/04 08:55:24;;;;;;;8.67;8.17;;;;;;;;;;5075519;28;20402;-62
2022/05/04 08:57:50;;;;;;;8.50;7.77;;;;;;;;;;5075653;28;20403;-64
2022/05/04 09:00:16;;;;;;;8.70;8.10;;;;;;;;;;5075516;28;20394;-62
2022/05/04 09:02:42;;;;;;;7.73;7.23;;;;;;;;;;5075469;28;20413;-63
2022/05/04 09:05:15;;;;;;;8.50;7.73;;;;;;;;;;5075513;28;20834;-63
2022/05/04 09:07:41;;;;;;;8.73;8.13;;;;;;;;;;5075427;28;20471;-63
2022/05/04 09:10:08;;;;;;;8.80;8.27;;;;;;;;;;5075233;28;20766;-63
2022/05/04 09:12:33;;;;;;;9.87;9.00;;;;;;;;;;5075177;28;20819;-63
2022/05/04 09:15:00;;;;;;;9.80;9.10;;;;;;;;;;5075173;28;20396;-63
2022/05/04 09:17:26;;;;;;;11.00;9.83;;;;;;;;;;5075317;28;20415;-63
2022/05/04 09:20:45;;;;;;;10.57;9.60;;;;;;;;;;5074510;28;20394;-62
2022/05/04 09:22:42;;;;;;;9.97;9.27;;;;;;;;;;5074844;28;20800;-62
2022/05/04 09:25:14;;;;;;;9.57;8.60;;;;;;;;;;5075003;28;20776;-63
2022/05/04 09:27:40;;;;;;;9.20;8.43;;;;;;;;;;5074748;28;20486;-63
2022/05/04 09:30:07;;;;;;;9.23;8.43;;;;;;;;;;5074869;28;20396;-64
2022/05/04 09:32:33;;;;;;;9.67;8.87;;;;;;;;;;5074868;28;20411;-63
2022/05/04 09:35:02;;;;;;;10.50;9.60;;;;;;;;;;5074808;28;20402;-63
2022/05/04 09:45:57;;;;;;;8.67;7.60;;;;;;;;;;5074450;28;20403;-62
2022/05/04 09:48:29;;;;;;;7.90;7.07;;;;;;;;;;5074619;28;20412;-61
2022/05/04 09:51:05;;;;;;;10.70;8.00;;;;;;;;;;5073123;28;21042;-62
2022/05/04 09:53:32;;;;;;;11.60;8.90;;;;;;;;;;5074608;28;20414;-62
2022/05/04 09:55:58;;;;;;;7.40;6.70;;;;;;;;;;5074349;28;20457;-63
2022/05/04 09:58:28;;;;;;;6.67;6.17;;;;;;;;;;5074370;28;20410;-64
2022/05/04 10:00:55;;;;;;;7.30;6.60;;;;;;;;;;5074210;28;20411;-62
2022/05/04 10:03:21;;;;;;;6.93;6.23;;;;;;;;;;5074149;28;20490;-61
2022/05/04 10:05:48;;;;;;;7.00;6.40;;;;;;;;;;5074341;28;20413;-60
2022/05/04 10:08:14;;;;;;;10.87;5.90;;;;;;;;;;5074056;28;20417;-61
2022/05/04 10:10:40;;;;;;;7.17;6.00;;;;;;;;;;5074045;28;20421;-61
2022/05/04 10:13:07;;;;;;;6.37;6.07;;;;;;;;;;5073960;28;20407;-61
2022/05/04 10:15:34;;;;;;;6.23;5.87;;;;;;;;;;5073909;28;20433;-60
2022/05/04 10:18:07;;;;;;;6.23;5.77;;;;;;;;;;5073815;28;20413;-60
2022/05/04 10:20:44;;;;;;;6.30;5.00;;;;;;;;;;5073663;28;20448;-60
2022/05/04 10:23:14;;;;;;;5.73;5.40;;;;;;;;;;5073774;28;20428;-60
2022/05/04 10:25:42;;;;;;;7.73;6.43;;;;;;;;;;5073673;28;20442;-60
2022/05/04 10:28:12;;;;;;;5.83;5.27;;;;;;;;;;5073769;28;20392;-60
2022/05/04 10:30:47;;;;;;;5.70;5.20;;;;;;;;;;5072888;28;20504;-62
2022/05/04 10:33:13;;;;;;;5.33;4.60;;;;;;;;;;5073624;28;20414;-60
2022/05/04 10:35:41;;;;;;;6.37;5.87;;;;;;;;;;5073587;28;20414;-60
2022/05/04 10:38:10;;;;;;;5.80;5.37;;;;;;;;;;5073627;28;20945;-62
2022/05/04 10:40:36;;;;;;;5.27;4.77;;;;;;;;;;5073588;28;20894;-60
2022/05/04 10:43:02;;;;;;;6.17;4.73;;;;;;;;;;5073603;28;20439;-60
2022/05/04 10:45:31;;;;;;;4.53;4.33;;;;;;;;;;5073513;28;20496;-61
2022/05/04 10:48:09;;;;;;;4.00;3.90;;;;;;;;;;5073518;28;20902;-61
2022/05/04 10:51:05;;;;;;;4.43;4.03;;;;;;;;;;5073458;28;20420;-62
2022/05/04 10:53:33;;;;;;;4.00;3.47;;;;;;;;;;5073000;28;20458;-61
2022/05/04 10:56:10;;;;;;;3.27;3.10;;;;;;;;;;5073454;28;20412;-62
2022/05/04 10:58:36;;;;;;;3.30;3.20;;;;;;;;;;5073412;28;20403;-61
2022/05/04 11:01:20;;;;;;;3.60;3.50;;;;;;;;;;5073428;28;20760;-62
2022/05/04 11:03:49;;;;;;;3.70;3.60;;;;;;;;;;5073410;28;20411;-61
2022/05/04 11:06:28;;;;;;;3.70;3.40;;;;;;;;;;5073223;28;20459;-62
2022/05/04 11:08:56;;;;;;;3.67;3.53;;;;;;;;;;5073250;28;20416;-61
2022/05/04 11:11:22;;;;;;;3.20;3.13;;;;;;;;;;5073384;28;20471;-62
2022/05/04 11:13:48;;;;;;;3.10;2.93;;;;;;;;;;5073280;28;20410;-61
2022/05/04 11:16:15;;;;;;;3.37;3.10;;;;;;;;;;5073703;28;20405;-60
2022/05/04 11:18:41;;;;;;;2.87;2.87;;;;;;;;;;5073239;28;20408;-61
2022/05/04 11:21:10;;;;;;;3.50;3.20;;;;;;;;;;5073231;28;20418;-61
2022/05/04 11:23:37;;;;;;;3.07;2.97;;;;;;;;;;5073442;28;20402;-61
2022/05/04 11:26:03;;;;;;;3.03;3.03;;;;;;;;;;5073475;28;20553;-61
2022/05/04 11:28:29;;;;;;;3.97;3.70;;;;;;;;;;5073185;28;20447;-62
2022/05/04 11:30:55;;;;;;;6.50;3.13;;;;;;;;;;5073068;28;20839;-61
2022/05/04 11:33:21;;;;;;;4.37;3.80;;;;;;;;;;5073129;28;20404;-61
2022/05/04 11:35:54;;;;;;;5.40;4.10;;;;;;;;;;5073111;28;20828;-61
2022/05/04 11:38:21;;;;;;;4.03;3.93;;;;;;;;;;5073003;28;20768;-61
2022/05/04 11:40:47;;;;;;;4.40;4.20;;;;;;;;;;5072925;28;20538;-61
2022/05/04 11:43:24;;;;;;;3.70;3.60;;;;;;;;;;5076635;28;20433;-61
2022/05/04 11:45:50;;;;;;;5.40;4.00;;;;;;;;;;5077027;28;20832;-62
2022/05/04 11:48:21;;;;;;;4.30;4.10;;;;;;;;;;5076820;28;20411;-62
2022/05/04 11:50:47;;;;;;;4.57;3.60;;;;;;;;;;5076985;28;20476;-62
2022/05/04 11:53:13;;;;;;;4.17;3.87;;;;;;;;;;5076620;28;20749;-62
2022/05/04 11:55:39;;;;;;;4.40;4.10;;;;;;;;;;5075542;28;20448;-61
2022/05/04 11:58:14;;;;;;;3.93;3.80;;;;;;;;;;5077016;28;20762;-60
2022/05/04 12:00:40;;;;;;;4.40;4.03;;;;;;;;;;5076598;28;20405;-61
2022/05/04 12:03:06;;;;;;;3.73;3.33;;;;;;;;;;5076603;28;20820;-62
2022/05/04 12:05:36;;;;;;;3.60;3.50;;;;;;;;;;5076421;28;20455;-61
2022/05/04 12:08:04;;;;;;;2.90;2.90;;;;;;;;;;5076411;28;20504;-62
2022/05/04 12:10:31;;;;;;;3.60;2.83;;;;;;;;;;5076598;28;20785;-63
2022/05/04 12:12:58;;;;;;;8.70;2.57;;;;;;;;;;5076607;28;20409;-61
2022/05/04 12:15:26;;;;;;;2.27;2.20;;;;;;;;;;5076310;28;20403;-61
2022/05/04 12:17:57;;;;;;;3.17;2.83;;;;;;;;;;5076321;28;20420;-61
2022/05/04 12:20:23;;;;;;;3.33;3.23;;;;;;;;;;5076232;28;20416;-61
2022/05/04 12:22:49;;;;;;;2.63;2.53;;;;;;;;;;5076337;28;20417;-62
2022/05/04 12:25:15;;;;;;;2.20;2.10;;;;;;;;;;5076188;28;20396;-61
2022/05/04 12:27:43;;;;;;;2.00;1.80;;;;;;;;;;5076085;28;20468;-62
2022/05/04 12:33:11;;;;;;;2.50;2.40;;;;;;;;;;5076166;28;20421;-62
2022/05/04 12:35:38;;;;;;;3.43;2.40;;;;;;;;;;5075826;28;20422;-62
2022/05/04 12:38:05;;;;;;;3.73;2.43;;;;;;;;;;5076114;28;20487;-62
2022/05/04 12:40:32;;;;;;;2.63;2.53;;;;;;;;;;5075695;28;20877;-61
2022/05/04 12:42:59;;;;;;;1.80;1.73;;;;;;;;;;5075695;28;20443;-61
2022/05/04 12:45:25;;;;;;;2.33;2.23;;;;;;;;;;5075668;28;20405;-61
2022/05/04 12:47:52;;;;;;;2.23;2.07;;;;;;;;;;5075587;28;20472;-61
2022/05/04 12:50:20;;;;;;;2.00;1.90;;;;;;;;;;5075604;28;20414;-62
2022/05/04 12:52:46;;;;;;;1.80;1.80;;;;;;;;;;5075195;28;20436;-62
2022/05/04 12:55:12;;;;;;;1.50;1.50;;;;;;;;;;5075346;28;20753;-63
2022/05/04 12:57:38;;;;;;;2.67;1.50;;;;;;;;;;5074287;28;20432;-61
2022/05/04 13:00:04;;;;;;;1.50;1.50;;;;;;;;;;5075423;28;20501;-61
2022/05/04 13:02:31;;;;;;;1.60;1.50;;;;;;;;;;5075357;28;20465;-61
2022/05/04 13:04:57;;;;;;;1.77;1.77;;;;;;;;;;5075317;28;20413;-61
2022/05/04 13:07:22;;;;;;;1.50;1.50;;;;;;;;;;5074943;28;20471;-61
2022/05/04 13:09:48;;;;;;;1.60;1.60;;;;;;;;;;5075241;28;20387;-60
2022/05/04 13:12:14;;;;;;;1.50;1.50;;;;;;;;;;5075136;28;20403;-61
2022/05/04 13:14:40;;;;;;;1.60;1.60;;;;;;;;;;5075109;28;20503;-61
2022/05/04 13:17:07;;;;;;;1.70;1.60;;;;;;;;;;5073874;28;20419;-61
2022/05/04 13:19:34;;;;;;;1.40;1.40;;;;;;;;;;5075266;28;20403;-61
2022/05/04 13:22:00;;;;;;;2.10;1.40;;;;;;;;;;5074972;28;20457;-61
2022/05/04 13:24:26;;;;;;;1.77;1.77;;;;;;;;;;5075010;28;20399;-61
2022/05/04 13:26:52;;;;;;;2.50;1.30;;;;;;;;;;5074717;28;20543;-61
2022/05/04 13:29:18;;;;;;;2.27;2.00;;;;;;;;;;5074859;28;20457;-61
2022/05/04 13:31:44;;;;;;;1.70;1.60;;;;;;;;;;5074704;28;20393;-61
2022/05/04 13:34:10;;;;;;;15.27;1.97;;;;;;;;;;5074752;28;20989;-61
2022/05/04 13:36:36;;;;;;;1.70;1.43;;;;;;;;;;5074937;28;20415;-61
2022/05/04 13:39:02;;;;;;;2.03;1.80;;;;;;;;;;5074434;28;20400;-61
2022/05/04 13:41:30;;;;;;;1.80;1.70;;;;;;;;;;5074708;28;20514;-61
2022/05/04 13:43:57;;;;;;;1.60;1.50;;;;;;;;;;5074492;28;20806;-61
2022/05/04 13:46:24;;;;;;;1.90;1.40;;;;;;;;;;5074335;28;20521;-62
2022/05/04 13:48:50;;;;;;;5.20;1.70;;;;;;;;;;5074381;28;20411;-61
2022/05/04 13:54:00;;;;;;;1.67;1.60;;;;;;;;;;5074682;28;20831;-61
2022/05/04 13:56:27;;;;;;;1.70;1.70;;;;;;;;;;5074345;28;20443;-61
2022/05/04 13:58:53;;;;;;;1.60;1.50;;;;;;;;;;5074379;28;20504;-61
2022/05/04 14:01:19;;;;;;;1.50;1.40;;;;;;;;;;5074243;28;20410;-61
2022/05/04 14:03:46;;;;;;;1.33;1.23;;;;;;;;;;5074281;28;20818;-61
2022/05/04 14:06:12;;;;;;;1.50;1.40;;;;;;;;;;5073939;28;20500;-61
2022/05/04 14:08:38;;;;;;;1.83;1.43;;;;;;;;;;5074114;28;20446;-61
2022/05/04 14:11:04;;;;;;;1.50;1.50;;;;;;;;;;5074322;28;20407;-61
2022/05/04 14:13:30;;;;;;;4.63;1.70;;;;;;;;;;5074070;28;20411;-61
2022/05/04 14:15:58;;;;;;;4.73;1.70;;;;;;;;;;5074278;28;20413;-62
2022/05/04 14:18:24;;;;;;;1.93;1.83;;;;;;;;;;5074293;28;20557;-61
2022/05/04 14:20:51;;;;;;;2.00;1.60;;;;;;;;;;5073924;28;20478;-61
2022/05/04 14:23:18;;;;;;;1.80;1.80;;;;;;;;;;5073866;28;20880;-61
2022/05/04 14:25:44;;;;;;;2.77;1.80;;;;;;;;;;5073869;28;20419;-61
2022/05/04 14:28:10;;;;;;;3.27;1.70;;;;;;;;;;5073805;28;20468;-61
2022/05/04 14:30:37;;;;;;;5.40;1.70;;;;;;;;;;5074082;28;20408;-61
2022/05/04 14:33:03;;;;;;;2.20;1.60;;;;;;;;;;5073761;28;20420;-61
2022/05/04 14:35:29;;;;;;;1.83;1.73;;;;;;;;;;5073976;28;20423;-61
2022/05/04 14:37:55;;;;;;;1.60;1.60;;;;;;;;;;5073691;28;20809;-62
2022/05/04 14:40:23;;;;;;;1.63;1.63;;;;;;;;;;5073480;28;20479;-61
2022/05/04 14:42:51;;;;;;;1.80;1.70;;;;;;;;;;5073712;28;20405;-62
2022/05/04 14:45:17;;;;;;;1.90;1.80;;;;;;;;;;5073609;28;20455;-61
2022/05/04 14:47:43;;;;;;;2.00;1.87;;;;;;;;;;5073514;28;20470;-62
2022/05/04 14:50:09;;;;;;;1.80;1.70;;;;;;;;;;5073531;28;20403;-61
2022/05/04 14:52:35;;;;;;;2.30;1.83;;;;;;;;;;5073433;28;20431;-61
2022/05/04 14:55:01;;;;;;;3.73;2.10;;;;;;;;;;5073360;28;20404;-61
2022/05/04 14:57:27;;;;;;;2.50;1.90;;;;;;;;;;5073550;28;20499;-61
2022/05/04 14:59:53;;;;;;;2.10;1.90;;;;;;;;;;5073569;28;20498;-61
2022/05/04 15:02:19;;;;;;;2.63;2.33;;;;;;;;;;5073441;28;20410;-61
2022/05/04 15:05:03;;;;;;;16.03;3.63;;;;;;;;;;5073341;28;20405;-61
2022/05/04 15:07:30;;;;;;;9.03;3.30;;;;;;;;;;5073087;28;20937;-61
2022/05/04 15:09:56;;;;;;;4.10;2.60;;;;;;;;;;5073202;28;20893;-61
2022/05/04 15:12:22;;;;;;;2.13;2.03;;;;;;;;;;5073356;28;20628;-62
2022/05/04 15:14:48;;;;;;;4.00;2.30;;;;;;;;;;5073438;28;20422;-62
2022/05/04 15:17:14;;;;;;;1.83;1.83;;;;;;;;;;5075557;28;20449;-61